KMAO

Marion County Airport

Marion, South Carolina, USA
METAR KMAO 170555Z AUTO 00000KT 7SM CLR M01/M01 A3031 RMK AO2
Observed Flight Rules
Dec-17 @ 05:55 UTC (22 minutes ago) Visual Flight Rules
Wind Visibility Clouds
Calm 7 miles
  • Clear skies
Temperatures Readings
Current -1°C / 30°F
Dewpoint -1°C / 30°F
Humidity 100%
Altimeter 30.31" Hg
Pressure 1026 hPa
Elevation 28
METAR KMAO 170555Z AUTO 00000KT 7SM CLR M01/M01 A3031 RMK AO2
Observed Flight Rules
Dec-17 @ 05:55 UTC
(22 minutes ago)
VFR
Wind Visibility
Calm 7 miles
Clouds
  • Clear skies
Temperature Dewpoint
-1°C / 30°F -1°C / 30°F
Humidity Altimeter Pressure
100% 30.31" Hg 1026 hPa